sensor_id;sensor_type;location;lat;lon;timestamp;temperature;humidity
3792;DHT22;1911;53.768;11.474;2022-08-01T00:01:14;17.80;99.90
3792;DHT22;1911;53.768;11.474;2022-08-01T00:03:40;17.90;99.90
3792;DHT22;1911;53.768;11.474;2022-08-01T00:06:06;17.90;99.90
3792;DHT22;1911;53.768;11.474;2022-08-01T00:08:32;17.90;99.90
3792;DHT22;1911;53.768;11.474;2022-08-01T00:10:58;17.90;99.90
3792;DHT22;1911;53.768;11.474;2022-08-01T00:13:23;18.00;99.90
3792;DHT22;1911;53.768;11.474;2022-08-01T00:15:49;18.00;99.90
3792;DHT22;1911;53.768;11.474;2022-08-01T00:18:15;18.00;99.90
3792;DHT22;1911;53.768;11.474;2022-08-01T00:20:40;18.00;99.90
3792;DHT22;1911;53.768;11.474;2022-08-01T00:23:06;18.10;99.90
3792;DHT22;1911;53.768;11.474;2022-08-01T00:25:32;18.10;99.90
3792;DHT22;1911;53.768;11.474;2022-08-01T00:27:57;18.10;99.90
3792;DHT22;1911;53.768;11.474;2022-08-01T00:30:23;18.10;99.90
3792;DHT22;1911;53.768;11.474;2022-08-01T00:32:49;18.20;99.90
3792;DHT22;1911;53.768;11.474;2022-08-01T00:35:14;18.20;99.90
3792;DHT22;1911;53.768;11.474;2022-08-01T00:37:40;18.20;99.90
3792;DHT22;1911;53.768;11.474;2022-08-01T00:40:07;18.20;99.90
3792;DHT22;1911;53.768;11.474;2022-08-01T00:42:32;18.20;99.90
3792;DHT22;1911;53.768;11.474;2022-08-01T00:44:58;18.10;99.90
3792;DHT22;1911;53.768;11.474;2022-08-01T00:47:24;18.10;99.90
3792;DHT22;1911;53.768;11.474;2022-08-01T00:49:50;18.20;99.90
3792;DHT22;1911;53.768;11.474;2022-08-01T00:52:16;18.20;99.90
3792;DHT22;1911;53.768;11.474;2022-08-01T00:54:41;18.20;99.90
3792;DHT22;1911;53.768;11.474;2022-08-01T00:57:08;18.20;99.90
3792;DHT22;1911;53.768;11.474;2022-08-01T01:12:55;18.30;99.90
3792;DHT22;1911;53.768;11.474;2022-08-01T01:15:40;18.30;99.90
3792;DHT22;1911;53.768;11.474;2022-08-01T01:18:55;18.30;99.90
3792;DHT22;1911;53.768;11.474;2022-08-01T01:27:12;18.40;99.90
3792;DHT22;1911;53.768;11.474;2022-08-01T01:29:51;18.40;99.90
3792;DHT22;1911;53.768;11.474;2022-08-01T01:32:45;18.40;99.90
3792;DHT22;1911;53.768;11.474;2022-08-01T01:35:21;18.40;99.90
3792;DHT22;1911;53.768;11.474;2022-08-01T01:37:51;18.40;99.90
3792;DHT22;1911;53.768;11.474;2022-08-01T01:40:19;18.40;99.90
3792;DHT22;1911;53.768;11.474;2022-08-01T01:42:46;18.40;99.90
3792;DHT22;1911;53.768;11.474;2022-08-01T01:45:14;18.40;99.90
3792;DHT22;1911;53.768;11.474;2022-08-01T01:47:41;18.40;99.90
3792;DHT22;1911;53.768;11.474;2022-08-01T01:50:28;18.40;99.90
3792;DHT22;1911;53.768;11.474;2022-08-01T01:52:55;18.40;99.90
3792;DHT22;1911;53.768;11.474;2022-08-01T01:55:22;18.40;99.90
3792;DHT22;1911;53.768;11.474;2022-08-01T01:57:50;18.30;99.90
3792;DHT22;1911;53.768;11.474;2022-08-01T02:00:17;18.30;99.90
3792;DHT22;1911;53.768;11.474;2022-08-01T02:02:44;18.30;99.90
3792;DHT22;1911;53.768;11.474;2022-08-01T02:05:12;18.40;99.90
3792;DHT22;1911;53.768;11.474;2022-08-01T02:07:39;18.40;99.90
3792;DHT22;1911;53.768;11.474;2022-08-01T02:10:07;18.30;99.90
3792;DHT22;1911;53.768;11.474;2022-08-01T02:12:36;18.30;99.90
3792;DHT22;1911;53.768;11.474;2022-08-01T02:15:04;18.30;99.90
3792;DHT22;1911;53.768;11.474;2022-08-01T02:17:31;18.30;99.90
3792;DHT22;1911;53.768;11.474;2022-08-01T02:19:57;18.30;99.90
3792;DHT22;1911;53.768;11.474;2022-08-01T02:22:30;18.30;99.90
3792;DHT22;1911;53.768;11.474;2022-08-01T02:27:34;18.40;99.90
3792;DHT22;1911;53.768;11.474;2022-08-01T02:30:05;18.40;99.90
3792;DHT22;1911;53.768;11.474;2022-08-01T02:35:13;18.40;99.90
3792;DHT22;1911;53.768;11.474;2022-08-01T02:37:41;18.40;99.90
3792;DHT22;1911;53.768;11.474;2022-08-01T02:40:09;18.30;99.90
3792;DHT22;1911;53.768;11.474;2022-08-01T02:42:37;18.30;99.90
3792;DHT22;1911;53.768;11.474;2022-08-01T02:45:05;18.30;99.90
3792;DHT22;1911;53.768;11.474;2022-08-01T02:47:36;18.30;99.90
3792;DHT22;1911;53.768;11.474;2022-08-01T02:50:03;18.30;99.90
3792;DHT22;1911;53.768;11.474;2022-08-01T02:52:30;18.30;99.90
3792;DHT22;1911;53.768;11.474;2022-08-01T02:54:57;18.30;99.90
3792;DHT22;1911;53.768;11.474;2022-08-01T02:57:25;18.20;99.90
3792;DHT22;1911;53.768;11.474;2022-08-01T02:59:52;18.20;99.90
3792;DHT22;1911;53.768;11.474;2022-08-01T03:02:20;18.20;99.90
3792;DHT22;1911;53.768;11.474;2022-08-01T03:04:48;18.20;99.90
3792;DHT22;1911;53.768;11.474;2022-08-01T03:07:17;18.20;99.90
3792;DHT22;1911;53.768;11.474;2022-08-01T03:09:46;18.20;99.90
3792;DHT22;1911;53.768;11.474;2022-08-01T03:12:18;18.10;99.90
3792;DHT22;1911;53.768;11.474;2022-08-01T03:14:46;18.20;99.90
3792;DHT22;1911;53.768;11.474;2022-08-01T03:17:13;18.20;99.90
3792;DHT22;1911;53.768;11.474;2022-08-01T03:19:44;18.10;99.90
3792;DHT22;1911;53.768;11.474;2022-08-01T03:22:12;18.10;99.90
3792;DHT22;1911;53.768;11.474;2022-08-01T03:24:41;18.10;99.90
3792;DHT22;1911;53.768;11.474;2022-08-01T03:27:08;18.10;99.90
3792;DHT22;1911;53.768;11.474;2022-08-01T03:29:34;18.10;99.90
3792;DHT22;1911;53.768;11.474;2022-08-01T03:32:01;18.10;99.90
3792;DHT22;1911;53.768;11.474;2022-08-01T03:34:28;18.10;99.90
3792;DHT22;1911;53.768;11.474;2022-08-01T03:37:33;18.10;99.90
3792;DHT22;1911;53.768;11.474;2022-08-01T03:40:08;18.10;99.90
3792;DHT22;1911;53.768;11.474;2022-08-01T03:42:39;18.00;99.90
3792;DHT22;1911;53.768;11.474;2022-08-01T03:45:08;18.10;99.90
3792;DHT22;1911;53.768;11.474;2022-08-01T03:47:36;18.10;99.90
3792;DHT22;1911;53.768;11.474;2022-08-01T03:50:06;18.10;99.90
3792;DHT22;1911;53.768;11.474;2022-08-01T03:52:32;18.10;99.90
3792;DHT22;1911;53.768;11.474;2022-08-01T03:55:04;18.10;99.90
3792;DHT22;1911;53.768;11.474;2022-08-01T03:57:32;18.10;99.90
3792;DHT22;1911;53.768;11.474;2022-08-01T03:59:59;18.10;99.90
3792;DHT22;1911;53.768;11.474;2022-08-01T04:02:27;18.10;99.90
3792;DHT22;1911;53.768;11.474;2022-08-01T04:04:54;18.10;99.90
3792;DHT22;1911;53.768;11.474;2022-08-01T04:07:31;18.10;99.90
3792;DHT22;1911;53.768;11.474;2022-08-01T04:09:57;18.10;99.90
3792;DHT22;1911;53.768;11.474;2022-08-01T04:12:23;18.10;99.90
3792;DHT22;1911;53.768;11.474;2022-08-01T04:14:49;18.10;99.90
3792;DHT22;1911;53.768;11.474;2022-08-01T04:17:18;18.10;99.90
3792;DHT22;1911;53.768;11.474;2022-08-01T04:19:44;18.10;99.90
3792;DHT22;1911;53.768;11.474;2022-08-01T04:22:13;18.00;99.90
3792;DHT22;1911;53.768;11.474;2022-08-01T04:24:40;18.00;99.90
3792;DHT22;1911;53.768;11.474;2022-08-01T04:27:13;18.10;99.90
3792;DHT22;1911;53.768;11.474;2022-08-01T04:29:41;18.00;99.90
3792;DHT22;1911;53.768;11.474;2022-08-01T04:32:09;18.00;99.90
3792;DHT22;1911;53.768;11.474;2022-08-01T04:34:39;18.00;99.90
3792;DHT22;1911;53.768;11.474;2022-08-01T04:37:08;18.00;99.90
3792;DHT22;1911;53.768;11.474;2022-08-01T04:39:37;18.00;99.90
3792;DHT22;1911;53.768;11.474;2022-08-01T04:42:05;18.10;99.90
3792;DHT22;1911;53.768;11.474;2022-08-01T04:44:32;18.10;99.90
3792;DHT22;1911;53.768;11.474;2022-08-01T04:47:02;18.10;99.90
3792;DHT22;1911;53.768;11.474;2022-08-01T04:49:31;18.10;99.90
3792;DHT22;1911;53.768;11.474;2022-08-01T04:51:57;18.10;99.90
3792;DHT22;1911;53.768;11.474;2022-08-01T04:54:30;18.20;99.90
3792;DHT22;1911;53.768;11.474;2022-08-01T04:57:00;18.20;99.90
3792;DHT22;1911;53.768;11.474;2022-08-01T04:59:26;18.30;99.90
3792;DHT22;1911;53.768;11.474;2022-08-01T05:02:18;18.30;99.90
3792;DHT22;1911;53.768;11.474;2022-08-01T05:04:45;18.30;99.90
3792;DHT22;1911;53.768;11.474;2022-08-01T05:07:12;18.30;99.90
3792;DHT22;1911;53.768;11.474;2022-08-01T05:09:39;18.40;99.90
3792;DHT22;1911;53.768;11.474;2022-08-01T05:12:07;18.30;99.90
3792;DHT22;1911;53.768;11.474;2022-08-01T05:14:33;18.30;99.90
3792;DHT22;1911;53.768;11.474;2022-08-01T05:17:04;18.40;99.90
3792;DHT22;1911;53.768;11.474;2022-08-01T05:19:30;18.40;99.90
3792;DHT22;1911;53.768;11.474;2022-08-01T05:22:03;18.40;99.90
3792;DHT22;1911;53.768;11.474;2022-08-01T05:24:30;18.30;99.90
3792;DHT22;1911;53.768;11.474;2022-08-01T05:26:57;18.20;99.90
3792;DHT22;1911;53.768;11.474;2022-08-01T05:29:23;18.20;99.90
3792;DHT22;1911;53.768;11.474;2022-08-01T05:31:49;18.30;99.90
3792;DHT22;1911;53.768;11.474;2022-08-01T05:34:14;18.30;99.90
3792;DHT22;1911;53.768;11.474;2022-08-01T05:36:40;18.30;99.90
3792;DHT22;1911;53.768;11.474;2022-08-01T05:39:06;18.30;99.90
3792;DHT22;1911;53.768;11.474;2022-08-01T05:41:32;18.30;99.90
3792;DHT22;1911;53.768;11.474;2022-08-01T05:43:57;18.20;99.90
3792;DHT22;1911;53.768;11.474;2022-08-01T05:46:23;18.30;99.90
3792;DHT22;1911;53.768;11.474;2022-08-01T05:48:49;18.20;99.90
3792;DHT22;1911;53.768;11.474;2022-08-01T05:51:15;18.20;99.90
3792;DHT22;1911;53.768;11.474;2022-08-01T05:53:41;18.20;99.90
3792;DHT22;1911;53.768;11.474;2022-08-01T05:56:06;18.10;99.90
3792;DHT22;1911;53.768;11.474;2022-08-01T05:58:32;18.20;99.90
3792;DHT22;1911;53.768;11.474;2022-08-01T06:00:59;18.20;99.90
3792;DHT22;1911;53.768;11.474;2022-08-01T06:03:24;18.30;99.90
3792;DHT22;1911;53.768;11.474;2022-08-01T06:05:53;18.30;99.90
3792;DHT22;1911;53.768;11.474;2022-08-01T06:08:18;18.30;99.90
3792;DHT22;1911;53.768;11.474;2022-08-01T06:10:44;18.40;99.90
3792;DHT22;1911;53.768;11.474;2022-08-01T06:13:10;18.50;99.90
3792;DHT22;1911;53.768;11.474;2022-08-01T06:15:36;18.70;99.90
3792;DHT22;1911;53.768;11.474;2022-08-01T06:18:02;19.10;99.90
3792;DHT22;1911;53.768;11.474;2022-08-01T06:20:27;19.10;99.90
3792;DHT22;1911;53.768;11.474;2022-08-01T06:22:53;19.30;99.90
3792;DHT22;1911;53.768;11.474;2022-08-01T06:25:19;19.30;99.90
3792;DHT22;1911;53.768;11.474;2022-08-01T06:27:46;19.20;99.90
3792;DHT22;1911;53.768;11.474;2022-08-01T12:00:59;20.40;99.90
3792;DHT22;1911;53.768;11.474;2022-08-01T12:03:33;20.30;22.60
3792;DHT22;1911;53.768;11.474;2022-08-01T12:06:55;20.40;1.00
3792;DHT22;1911;53.768;11.474;2022-08-01T12:09:46;20.30;99.90
3792;DHT22;1911;53.768;11.474;2022-08-01T12:12:15;20.10;1.00
3792;DHT22;1911;53.768;11.474;2022-08-01T12:14:56;20.20;1.00
3792;DHT22;1911;53.768;11.474;2022-08-01T12:17:44;20.50;1.00
3792;DHT22;1911;53.768;11.474;2022-08-01T12:20:12;20.60;99.90
3792;DHT22;1911;53.768;11.474;2022-08-01T12:22:38;20.80;1.00
3792;DHT22;1911;53.768;11.474;2022-08-01T12:25:15;20.90;51.60
3792;DHT22;1911;53.768;11.474;2022-08-01T12:27:43;20.60;1.00
3792;DHT22;1911;53.768;11.474;2022-08-01T12:30:11;20.60;1.00
3792;DHT22;1911;53.768;11.474;2022-08-01T12:32:39;20.60;1.00
3792;DHT22;1911;53.768;11.474;2022-08-01T12:35:11;20.60;99.90
3792;DHT22;1911;53.768;11.474;2022-08-01T12:37:42;20.60;99.90
3792;DHT22;1911;53.768;11.474;2022-08-01T12:40:22;20.60;99.90
3792;DHT22;1911;53.768;11.474;2022-08-01T12:42:51;20.80;99.90
3792;DHT22;1911;53.768;11.474;2022-08-01T12:45:19;20.90;25.10
3792;DHT22;1911;53.768;11.474;2022-08-01T12:47:47;20.70;1.00
3792;DHT22;1911;53.768;11.474;2022-08-01T12:50:16;20.50;1.00
3792;DHT22;1911;53.768;11.474;2022-08-01T12:52:44;20.50;1.00
3792;DHT22;1911;53.768;11.474;2022-08-01T12:55:17;20.60;1.00
3792;DHT22;1911;53.768;11.474;2022-08-01T12:57:46;20.80;1.00
3792;DHT22;1911;53.768;11.474;2022-08-01T13:00:22;20.80;1.00
3792;DHT22;1911;53.768;11.474;2022-08-01T13:02:51;20.80;1.00
3792;DHT22;1911;53.768;11.474;2022-08-01T13:05:26;21.10;99.90
3792;DHT22;1911;53.768;11.474;2022-08-01T13:07:53;21.20;99.90
3792;DHT22;1911;53.768;11.474;2022-08-01T13:10:28;21.00;99.90
3792;DHT22;1911;53.768;11.474;2022-08-01T13:12:57;21.00;99.90
3792;DHT22;1911;53.768;11.474;2022-08-01T13:15:27;21.20;99.90
3792;DHT22;1911;53.768;11.474;2022-08-01T13:17:54;20.90;21.50
3792;DHT22;1911;53.768;11.474;2022-08-01T13:20:28;21.00;99.90
3792;DHT22;1911;53.768;11.474;2022-08-01T13:22:54;21.00;1.00
3792;DHT22;1911;53.768;11.474;2022-08-01T13:25:54;21.10;1.00
3792;DHT22;1911;53.768;11.474;2022-08-01T13:28:33;21.30;1.00
3792;DHT22;1911;53.768;11.474;2022-08-01T13:31:14;21.60;1.00
3792;DHT22;1911;53.768;11.474;2022-08-01T13:37:17;21.50;1.00
3792;DHT22;1911;53.768;11.474;2022-08-01T13:39:45;21.40;99.90
3792;DHT22;1911;53.768;11.474;2022-08-01T13:42:15;21.50;99.90
3792;DHT22;1911;53.768;11.474;2022-08-01T13:44:41;21.60;99.90
3792;DHT22;1911;53.768;11.474;2022-08-01T13:47:08;21.60;99.90
3792;DHT22;1911;53.768;11.474;2022-08-01T13:49:34;21.80;99.90
3792;DHT22;1911;53.768;11.474;2022-08-01T13:52:00;21.70;99.90
3792;DHT22;1911;53.768;11.474;2022-08-01T13:54:26;21.60;99.90
3792;DHT22;1911;53.768;11.474;2022-08-01T13:56:52;21.70;99.90
3792;DHT22;1911;53.768;11.474;2022-08-01T13:59:18;21.60;99.90
3792;DHT22;1911;53.768;11.474;2022-08-01T14:01:44;21.40;99.90
3792;DHT22;1911;53.768;11.474;2022-08-01T14:04:10;21.40;99.90
3792;DHT22;1911;53.768;11.474;2022-08-01T14:06:35;21.50;99.90
3792;DHT22;1911;53.768;11.474;2022-08-01T14:09:03;21.60;99.90
3792;DHT22;1911;53.768;11.474;2022-08-01T14:11:29;21.70;99.90
3792;DHT22;1911;53.768;11.474;2022-08-01T14:13:55;21.60;99.90
3792;DHT22;1911;53.768;11.474;2022-08-01T14:16:21;21.70;99.90
3792;DHT22;1911;53.768;11.474;2022-08-01T14:18:47;21.80;99.90
3792;DHT22;1911;53.768;11.474;2022-08-01T14:21:13;21.80;99.90
3792;DHT22;1911;53.768;11.474;2022-08-01T14:23:40;21.40;99.90
3792;DHT22;1911;53.768;11.474;2022-08-01T14:26:08;21.50;99.90
3792;DHT22;1911;53.768;11.474;2022-08-01T14:28:35;21.50;99.90
3792;DHT22;1911;53.768;11.474;2022-08-01T14:31:00;21.50;99.90
3792;DHT22;1911;53.768;11.474;2022-08-01T14:33:26;21.60;99.90
3792;DHT22;1911;53.768;11.474;2022-08-01T14:35:52;21.40;99.90
3792;DHT22;1911;53.768;11.474;2022-08-01T14:38:18;21.20;99.90
3792;DHT22;1911;53.768;11.474;2022-08-01T14:40:44;21.30;99.90
3792;DHT22;1911;53.768;11.474;2022-08-01T14:43:12;21.40;99.90
3792;DHT22;1911;53.768;11.474;2022-08-01T14:45:38;21.50;99.90
3792;DHT22;1911;53.768;11.474;2022-08-01T14:48:04;21.40;99.90
3792;DHT22;1911;53.768;11.474;2022-08-01T14:50:30;21.20;99.90
3792;DHT22;1911;53.768;11.474;2022-08-01T14:52:56;21.10;99.90
3792;DHT22;1911;53.768;11.474;2022-08-01T14:55:22;20.90;99.90
3792;DHT22;1911;53.768;11.474;2022-08-01T14:57:50;21.00;99.90
3792;DHT22;1911;53.768;11.474;2022-08-01T15:00:16;21.20;99.90
3792;DHT22;1911;53.768;11.474;2022-08-01T15:02:42;20.90;99.90
3792;DHT22;1911;53.768;11.474;2022-08-01T15:05:08;20.70;99.90
3792;DHT22;1911;53.768;11.474;2022-08-01T15:07:35;20.80;99.90
3792;DHT22;1911;53.768;11.474;2022-08-01T15:10:03;21.00;99.90
3792;DHT22;1911;53.768;11.474;2022-08-01T15:12:28;21.20;99.90
3792;DHT22;1911;53.768;11.474;2022-08-01T15:14:54;21.20;99.90
3792;DHT22;1911;53.768;11.474;2022-08-01T15:17:30;21.30;99.90
3792;DHT22;1911;53.768;11.474;2022-08-01T15:20:05;21.30;99.90
3792;DHT22;1911;53.768;11.474;2022-08-01T15:22:32;21.30;99.90
3792;DHT22;1911;53.768;11.474;2022-08-01T15:25:00;21.10;99.90
3792;DHT22;1911;53.768;11.474;2022-08-01T15:27:26;21.00;99.90
3792;DHT22;1911;53.768;11.474;2022-08-01T15:29:53;21.00;99.90
3792;DHT22;1911;53.768;11.474;2022-08-01T15:32:19;21.00;99.90
3792;DHT22;1911;53.768;11.474;2022-08-01T15:34:45;21.00;99.90
3792;DHT22;1911;53.768;11.474;2022-08-01T15:37:11;20.90;99.90
3792;DHT22;1911;53.768;11.474;2022-08-01T15:39:37;21.00;99.90
3792;DHT22;1911;53.768;11.474;2022-08-01T15:42:14;20.90;99.90
3792;DHT22;1911;53.768;11.474;2022-08-01T15:44:40;20.90;99.90
3792;DHT22;1911;53.768;11.474;2022-08-01T15:47:07;20.80;99.90
3792;DHT22;1911;53.768;11.474;2022-08-01T15:49:33;20.90;99.90
3792;DHT22;1911;53.768;11.474;2022-08-01T15:52:02;21.00;99.90
3792;DHT22;1911;53.768;11.474;2022-08-01T15:54:28;20.90;99.90
3792;DHT22;1911;53.768;11.474;2022-08-01T15:56:53;20.90;99.90
3792;DHT22;1911;53.768;11.474;2022-08-01T15:59:19;20.80;99.90
3792;DHT22;1911;53.768;11.474;2022-08-01T16:01:45;20.90;99.90
3792;DHT22;1911;53.768;11.474;2022-08-01T16:04:10;20.90;99.90
3792;DHT22;1911;53.768;11.474;2022-08-01T16:06:37;20.90;99.90
3792;DHT22;1911;53.768;11.474;2022-08-01T16:09:04;20.90;99.90
3792;DHT22;1911;53.768;11.474;2022-08-01T16:11:29;20.90;99.90
3792;DHT22;1911;53.768;11.474;2022-08-01T16:13:56;20.70;99.90
3792;DHT22;1911;53.768;11.474;2022-08-01T16:16:22;20.70;99.90
3792;DHT22;1911;53.768;11.474;2022-08-01T16:18:48;20.80;99.90
3792;DHT22;1911;53.768;11.474;2022-08-01T16:21:14;20.70;99.90
3792;DHT22;1911;53.768;11.474;2022-08-01T16:23:41;20.50;99.90
3792;DHT22;1911;53.768;11.474;2022-08-01T16:26:08;20.60;99.90
3792;DHT22;1911;53.768;11.474;2022-08-01T16:28:34;20.60;99.90
3792;DHT22;1911;53.768;11.474;2022-08-01T16:31:00;20.70;99.90
3792;DHT22;1911;53.768;11.474;2022-08-01T16:33:26;20.70;99.90
3792;DHT22;1911;53.768;11.474;2022-08-01T16:35:52;20.70;99.90
3792;DHT22;1911;53.768;11.474;2022-08-01T16:38:18;20.70;99.90
3792;DHT22;1911;53.768;11.474;2022-08-01T16:40:46;20.80;99.90
3792;DHT22;1911;53.768;11.474;2022-08-01T16:43:16;20.90;99.90
3792;DHT22;1911;53.768;11.474;2022-08-01T16:45:43;21.10;99.90
3792;DHT22;1911;53.768;11.474;2022-08-01T16:48:09;21.20;99.90
3792;DHT22;1911;53.768;11.474;2022-08-01T16:50:35;20.90;99.90
3792;DHT22;1911;53.768;11.474;2022-08-01T16:53:03;20.90;99.90
3792;DHT22;1911;53.768;11.474;2022-08-01T16:55:28;20.90;99.90
3792;DHT22;1911;53.768;11.474;2022-08-01T16:57:54;20.90;99.30
3792;DHT22;1911;53.768;11.474;2022-08-01T17:00:21;20.90;94.70
3792;DHT22;1911;53.768;11.474;2022-08-01T17:02:50;20.80;93.10
3792;DHT22;1911;53.768;11.474;2022-08-01T17:05:16;20.80;94.10
3792;DHT22;1911;53.768;11.474;2022-08-01T17:07:42;20.60;90.40
3792;DHT22;1911;53.768;11.474;2022-08-01T17:10:08;20.40;90.00
3792;DHT22;1911;53.768;11.474;2022-08-01T17:12:34;20.20;88.00
3792;DHT22;1911;53.768;11.474;2022-08-01T17:15:00;20.20;92.50
3792;DHT22;1911;53.768;11.474;2022-08-01T17:17:27;20.20;92.20
3792;DHT22;1911;53.768;11.474;2022-08-01T17:19:53;20.10;97.50
3792;DHT22;1911;53.768;11.474;2022-08-01T17:22:18;20.10;90.60
3792;DHT22;1911;53.768;11.474;2022-08-01T17:24:44;20.20;86.20
3792;DHT22;1911;53.768;11.474;2022-08-01T17:34:09;20.30;93.20
3792;DHT22;1911;53.768;11.474;2022-08-01T17:36:56;20.30;78.00
3792;DHT22;1911;53.768;11.474;2022-08-01T17:39:22;20.10;69.70
3792;DHT22;1911;53.768;11.474;2022-08-01T17:42:05;20.00;69.80
3792;DHT22;1911;53.768;11.474;2022-08-01T17:44:44;20.00;69.30
3792;DHT22;1911;53.768;11.474;2022-08-01T17:47:18;20.00;64.30
3792;DHT22;1911;53.768;11.474;2022-08-01T17:50:13;20.00;67.90
3792;DHT22;1911;53.768;11.474;2022-08-01T17:52:44;19.90;62.40
3792;DHT22;1911;53.768;11.474;2022-08-01T17:55:10;19.80;54.20
3792;DHT22;1911;53.768;11.474;2022-08-01T17:57:36;19.70;52.60
3792;DHT22;1911;53.768;11.474;2022-08-01T18:00:04;19.60;60.00
3792;DHT22;1911;53.768;11.474;2022-08-01T18:02:30;19.60;55.00
3792;DHT22;1911;53.768;11.474;2022-08-01T18:05:06;19.60;57.90
3792;DHT22;1911;53.768;11.474;2022-08-01T18:07:34;19.50;59.30
3792;DHT22;1911;53.768;11.474;2022-08-01T18:10:08;19.50;62.80
3792;DHT22;1911;53.768;11.474;2022-08-01T18:12:33;19.50;70.90
3792;DHT22;1911;53.768;11.474;2022-08-01T18:14:59;19.40;73.60
3792;DHT22;1911;53.768;11.474;2022-08-01T18:17:37;19.50;73.80
3792;DHT22;1911;53.768;11.474;2022-08-01T18:20:27;19.30;67.80
3792;DHT22;1911;53.768;11.474;2022-08-01T18:26:32;19.20;82.50
3792;DHT22;1911;53.768;11.474;2022-08-01T18:29:02;19.10;80.00
3792;DHT22;1911;53.768;11.474;2022-08-01T18:31:41;19.00;91.40
3792;DHT22;1911;53.768;11.474;2022-08-01T18:50:29;18.70;99.90
3792;DHT22;1911;53.768;11.474;2022-08-01T18:56:27;18.50;99.90
3792;DHT22;1911;53.768;11.474;2022-08-01T18:59:17;18.40;99.90
3792;DHT22;1911;53.768;11.474;2022-08-01T19:01:59;18.40;99.90
3792;DHT22;1911;53.768;11.474;2022-08-01T19:04:27;18.30;99.90
3792;DHT22;1911;53.768;11.474;2022-08-01T19:11:16;18.20;99.90
3792;DHT22;1911;53.768;11.474;2022-08-01T19:14:01;18.10;99.90
3792;DHT22;1911;53.768;11.474;2022-08-01T19:19:40;18.00;1.00
3792;DHT22;1911;53.768;11.474;2022-08-01T19:22:07;18.00;1.00
3792;DHT22;1911;53.768;11.474;2022-08-01T19:24:47;17.90;1.00
3792;DHT22;1911;53.768;11.474;2022-08-01T19:31:24;17.70;1.00
3792;DHT22;1911;53.768;11.474;2022-08-01T19:39:58;17.50;99.90
3792;DHT22;1911;53.768;11.474;2022-08-01T19:49:22;17.40;1.00
3792;DHT22;1911;53.768;11.474;2022-08-01T19:51:56;17.30;1.00
3792;DHT22;1911;53.768;11.474;2022-08-01T19:58:27;17.20;1.00
3792;DHT22;1911;53.768;11.474;2022-08-01T20:01:06;17.00;1.00
3792;DHT22;1911;53.768;11.474;2022-08-01T20:07:20;17.00;1.00
3792;DHT22;1911;53.768;11.474;2022-08-01T20:10:10;16.80;99.90
3792;DHT22;1911;53.768;11.474;2022-08-01T20:12:43;16.80;99.90
3792;DHT22;1911;53.768;11.474;2022-08-01T20:15:15;16.80;99.90
3792;DHT22;1911;53.768;11.474;2022-08-01T20:20:48;16.80;99.90
3792;DHT22;1911;53.768;11.474;2022-08-01T20:23:20;16.70;99.90
3792;DHT22;1911;53.768;11.474;2022-08-01T20:25:54;16.60;1.00
3792;DHT22;1911;53.768;11.474;2022-08-01T20:28:39;16.40;1.00
3792;DHT22;1911;53.768;11.474;2022-08-01T20:31:50;16.40;1.00
3792;DHT22;1911;53.768;11.474;2022-08-01T20:37:36;16.40;1.00
3792;DHT22;1911;53.768;11.474;2022-08-01T20:46:57;16.40;1.00
3792;DHT22;1911;53.768;11.474;2022-08-01T20:49:42;16.50;1.00
3792;DHT22;1911;53.768;11.474;2022-08-01T21:02:58;16.20;1.00
3792;DHT22;1911;53.768;11.474;2022-08-01T21:05:29;16.20;1.00
3792;DHT22;1911;53.768;11.474;2022-08-01T21:10:29;16.10;1.00
3792;DHT22;1911;53.768;11.474;2022-08-01T21:13:05;16.00;1.00
3792;DHT22;1911;53.768;11.474;2022-08-01T21:15:48;16.00;1.00
3792;DHT22;1911;53.768;11.474;2022-08-01T21:18:19;16.00;1.00
3792;DHT22;1911;53.768;11.474;2022-08-01T21:21:08;15.90;1.00
3792;DHT22;1911;53.768;11.474;2022-08-01T21:26:19;15.80;1.00
3792;DHT22;1911;53.768;11.474;2022-08-01T21:28:47;15.80;1.00
3792;DHT22;1911;53.768;11.474;2022-08-01T21:31:13;15.70;1.00
3792;DHT22;1911;53.768;11.474;2022-08-01T21:33:40;15.60;1.00
3792;DHT22;1911;53.768;11.474;2022-08-01T21:36:07;15.60;1.00
3792;DHT22;1911;53.768;11.474;2022-08-01T21:38:35;15.60;1.00
3792;DHT22;1911;53.768;11.474;2022-08-01T21:41:06;15.60;1.00
3792;DHT22;1911;53.768;11.474;2022-08-01T21:43:33;15.50;1.00
3792;DHT22;1911;53.768;11.474;2022-08-01T21:46:00;15.50;1.00
3792;DHT22;1911;53.768;11.474;2022-08-01T21:48:26;15.40;1.00
3792;DHT22;1911;53.768;11.474;2022-08-01T21:56:47;15.20;1.00
3792;DHT22;1911;53.768;11.474;2022-08-01T22:01:50;15.10;1.00
3792;DHT22;1911;53.768;11.474;2022-08-01T22:04:31;15.10;1.00
3792;DHT22;1911;53.768;11.474;2022-08-01T22:06:58;15.00;1.00
3792;DHT22;1911;53.768;11.474;2022-08-01T22:09:25;15.00;1.00
3792;DHT22;1911;53.768;11.474;2022-08-01T22:11:51;15.00;1.00
3792;DHT22;1911;53.768;11.474;2022-08-01T22:14:18;14.90;1.00
3792;DHT22;1911;53.768;11.474;2022-08-01T22:16:47;14.90;1.00
3792;DHT22;1911;53.768;11.474;2022-08-01T22:19:13;14.80;1.00
3792;DHT22;1911;53.768;11.474;2022-08-01T22:21:40;14.80;1.00
3792;DHT22;1911;53.768;11.474;2022-08-01T22:24:06;14.80;1.00
3792;DHT22;1911;53.768;11.474;2022-08-01T22:26:35;14.70;1.00
3792;DHT22;1911;53.768;11.474;2022-08-01T22:29:02;14.70;1.00
3792;DHT22;1911;53.768;11.474;2022-08-01T22:31:28;14.60;42.50
3792;DHT22;1911;53.768;11.474;2022-08-01T22:33:54;14.60;99.90
3792;DHT22;1911;53.768;11.474;2022-08-01T22:36:20;14.50;99.90
3792;DHT22;1911;53.768;11.474;2022-08-01T22:38:46;14.40;99.90
3792;DHT22;1911;53.768;11.474;2022-08-01T22:41:20;14.40;99.90
3792;DHT22;1911;53.768;11.474;2022-08-01T22:44:03;14.40;99.90
3792;DHT22;1911;53.768;11.474;2022-08-01T22:49:33;14.30;1.00
3792;DHT22;1911;53.768;11.474;2022-08-01T22:52:10;14.20;1.00
3792;DHT22;1911;53.768;11.474;2022-08-01T22:54:38;14.20;1.00
3792;DHT22;1911;53.768;11.474;2022-08-01T22:57:13;14.10;1.00
3792;DHT22;1911;53.768;11.474;2022-08-01T22:59:45;14.10;24.90
3792;DHT22;1911;53.768;11.474;2022-08-01T23:02:14;14.10;99.90
3792;DHT22;1911;53.768;11.474;2022-08-01T23:04:49;14.00;99.90
3792;DHT22;1911;53.768;11.474;2022-08-01T23:07:23;14.00;1.00
3792;DHT22;1911;53.768;11.474;2022-08-01T23:09:52;14.00;1.00
3792;DHT22;1911;53.768;11.474;2022-08-01T23:12:25;14.00;1.00
3792;DHT22;1911;53.768;11.474;2022-08-01T23:14:56;13.90;1.00
3792;DHT22;1911;53.768;11.474;2022-08-01T23:17:27;13.90;1.00
3792;DHT22;1911;53.768;11.474;2022-08-01T23:19:58;13.90;1.00
3792;DHT22;1911;53.768;11.474;2022-08-01T23:22:27;13.80;1.00
3792;DHT22;1911;53.768;11.474;2022-08-01T23:24:55;13.80;1.00
3792;DHT22;1911;53.768;11.474;2022-08-01T23:27:21;13.80;99.90
3792;DHT22;1911;53.768;11.474;2022-08-01T23:29:50;13.80;99.90
3792;DHT22;1911;53.768;11.474;2022-08-01T23:32:17;13.70;99.90
3792;DHT22;1911;53.768;11.474;2022-08-01T23:34:44;13.70;99.90
3792;DHT22;1911;53.768;11.474;2022-08-01T23:37:10;13.70;99.90
3792;DHT22;1911;53.768;11.474;2022-08-01T23:39:36;13.70;99.90
3792;DHT22;1911;53.768;11.474;2022-08-01T23:42:02;13.60;99.90
3792;DHT22;1911;53.768;11.474;2022-08-01T23:44:28;13.60;99.90
3792;DHT22;1911;53.768;11.474;2022-08-01T23:46:54;13.60;99.90